Ahsahka, Idaho
Current Conditions -  °F | °C
As of 12:56 AM on Saturday 22 Nov 2014 (Local Time) from KLWS Reporting Station
Light Rain Light Rain  
Wind Chill: 50°   Ceiling: 5000
Heat Index: 50°   Visibility: 10mi
Dew Point: 41°   Wind: 17mph
Humidity: 71%   Direction: 200°SSW
Pressure: 29.49"   Gusts: NA
Location:  46.51°N, 116.35°W
Report Text: KLWS 220856Z AUTO 20015KT 10SM -RA OVC050 10/05 A2949 RMK AO2 PK WND 19026/0803 RAB01 SLP990 P0001 60001 T01000050 55003
Loading
Personal Weather Stations






























Interactive Weather Map New forecast layout! Learn more

10-Day Weather Forecast

Advertisements
Track Severe Weather on mobile